sensor_id;sensor_type;location;lat;lon;timestamp;P1;durP1;ratioP1;P2;durP2;ratioP2
46318;SDS011;32042;50.916;2.926;2024-01-07T00:01:12;1.37;;;1.20;;
46318;SDS011;32042;50.916;2.926;2024-01-07T00:03:40;3.00;;;1.10;;
46318;SDS011;32042;50.916;2.926;2024-01-07T00:06:08;5.27;;;1.50;;
46318;SDS011;32042;50.916;2.926;2024-01-07T00:08:34;1.63;;;1.20;;
46318;SDS011;32042;50.916;2.926;2024-01-07T00:11:00;1.60;;;1.50;;
46318;SDS011;32042;50.916;2.926;2024-01-07T00:13:26;3.93;;;1.70;;
46318;SDS011;32042;50.916;2.926;2024-01-07T00:15:52;2.33;;;1.90;;
46318;SDS011;32042;50.916;2.926;2024-01-07T00:18:20;2.67;;;1.83;;
46318;SDS011;32042;50.916;2.926;2024-01-07T00:20:47;4.00;;;2.10;;
46318;SDS011;32042;50.916;2.926;2024-01-07T00:23:13;3.10;;;1.60;;
46318;SDS011;32042;50.916;2.926;2024-01-07T00:25:39;2.47;;;1.63;;
46318;SDS011;32042;50.916;2.926;2024-01-07T00:28:05;5.27;;;1.90;;
46318;SDS011;32042;50.916;2.926;2024-01-07T00:30:31;2.80;;;1.67;;
46318;SDS011;32042;50.916;2.926;2024-01-07T00:32:57;2.83;;;1.77;;
46318;SDS011;32042;50.916;2.926;2024-01-07T00:35:23;2.03;;;1.77;;
46318;SDS011;32042;50.916;2.926;2024-01-07T00:37:50;3.77;;;1.70;;
46318;SDS011;32042;50.916;2.926;2024-01-07T00:40:16;3.50;;;1.73;;
46318;SDS011;32042;50.916;2.926;2024-01-07T00:42:42;2.80;;;2.20;;
46318;SDS011;32042;50.916;2.926;2024-01-07T00:45:08;2.80;;;2.00;;
46318;SDS011;32042;50.916;2.926;2024-01-07T00:47:35;2.90;;;2.27;;
46318;SDS011;32042;50.916;2.926;2024-01-07T00:50:01;5.47;;;2.37;;
46318;SDS011;32042;50.916;2.926;2024-01-07T00:52:27;1.83;;;1.73;;
46318;SDS011;32042;50.916;2.926;2024-01-07T00:54:53;4.70;;;2.20;;
46318;SDS011;32042;50.916;2.926;2024-01-07T00:57:19;3.70;;;2.43;;
46318;SDS011;32042;50.916;2.926;2024-01-07T00:59:45;2.07;;;1.90;;
46318;SDS011;32042;50.916;2.926;2024-01-07T01:02:11;3.17;;;1.90;;
46318;SDS011;32042;50.916;2.926;2024-01-07T01:04:40;2.80;;;2.30;;
46318;SDS011;32042;50.916;2.926;2024-01-07T01:07:07;3.17;;;2.10;;
46318;SDS011;32042;50.916;2.926;2024-01-07T01:09:35;4.07;;;2.37;;
46318;SDS011;32042;50.916;2.926;2024-01-07T01:12:01;5.63;;;2.40;;
46318;SDS011;32042;50.916;2.926;2024-01-07T01:14:27;3.50;;;2.50;;
46318;SDS011;32042;50.916;2.926;2024-01-07T01:16:53;4.37;;;2.43;;
46318;SDS011;32042;50.916;2.926;2024-01-07T01:19:19;4.07;;;2.77;;
46318;SDS011;32042;50.916;2.926;2024-01-07T01:21:46;2.53;;;2.30;;
46318;SDS011;32042;50.916;2.926;2024-01-07T01:24:12;2.50;;;1.90;;
46318;SDS011;32042;50.916;2.926;2024-01-07T01:26:38;3.00;;;2.50;;
46318;SDS011;32042;50.916;2.926;2024-01-07T01:29:04;3.40;;;2.50;;
46318;SDS011;32042;50.916;2.926;2024-01-07T01:31:30;4.17;;;2.70;;
46318;SDS011;32042;50.916;2.926;2024-01-07T01:33:56;3.63;;;2.70;;
46318;SDS011;32042;50.916;2.926;2024-01-07T01:36:22;6.17;;;2.67;;
46318;SDS011;32042;50.916;2.926;2024-01-07T01:38:49;5.17;;;3.13;;
46318;SDS011;32042;50.916;2.926;2024-01-07T01:41:18;4.90;;;2.77;;
46318;SDS011;32042;50.916;2.926;2024-01-07T01:43:44;8.60;;;3.20;;
46318;SDS011;32042;50.916;2.926;2024-01-07T01:46:11;3.00;;;2.70;;
46318;SDS011;32042;50.916;2.926;2024-01-07T01:48:38;3.60;;;2.97;;
46318;SDS011;32042;50.916;2.926;2024-01-07T01:51:04;3.03;;;2.43;;
46318;SDS011;32042;50.916;2.926;2024-01-07T01:53:30;3.87;;;2.30;;
46318;SDS011;32042;50.916;2.926;2024-01-07T01:55:56;3.87;;;2.70;;
46318;SDS011;32042;50.916;2.926;2024-01-07T01:58:23;3.63;;;3.00;;
46318;SDS011;32042;50.916;2.926;2024-01-07T02:00:49;2.97;;;2.67;;
46318;SDS011;32042;50.916;2.926;2024-01-07T02:03:16;3.80;;;2.73;;
46318;SDS011;32042;50.916;2.926;2024-01-07T02:05:42;5.40;;;3.03;;
46318;SDS011;32042;50.916;2.926;2024-01-07T02:08:09;4.83;;;2.97;;
46318;SDS011;32042;50.916;2.926;2024-01-07T02:10:36;5.10;;;2.80;;
46318;SDS011;32042;50.916;2.926;2024-01-07T02:13:03;6.50;;;2.97;;
46318;SDS011;32042;50.916;2.926;2024-01-07T02:15:29;5.97;;;2.70;;
46318;SDS011;32042;50.916;2.926;2024-01-07T02:17:55;3.80;;;3.17;;
46318;SDS011;32042;50.916;2.926;2024-01-07T02:20:21;5.70;;;3.30;;
46318;SDS011;32042;50.916;2.926;2024-01-07T02:22:48;4.90;;;2.53;;
46318;SDS011;32042;50.916;2.926;2024-01-07T02:25:14;4.33;;;2.97;;
46318;SDS011;32042;50.916;2.926;2024-01-07T02:27:40;7.00;;;3.80;;
46318;SDS011;32042;50.916;2.926;2024-01-07T02:30:06;2.93;;;2.63;;
46318;SDS011;32042;50.916;2.926;2024-01-07T02:32:32;3.87;;;2.73;;
46318;SDS011;32042;50.916;2.926;2024-01-07T02:35:01;3.57;;;3.10;;
46318;SDS011;32042;50.916;2.926;2024-01-07T02:37:27;4.47;;;2.70;;
46318;SDS011;32042;50.916;2.926;2024-01-07T02:39:53;3.57;;;2.70;;
46318;SDS011;32042;50.916;2.926;2024-01-07T02:42:19;5.00;;;2.87;;
46318;SDS011;32042;50.916;2.926;2024-01-07T02:44:45;2.90;;;2.43;;
46318;SDS011;32042;50.916;2.926;2024-01-07T02:47:11;3.83;;;2.23;;
46318;SDS011;32042;50.916;2.926;2024-01-07T02:49:37;2.37;;;1.97;;
46318;SDS011;32042;50.916;2.926;2024-01-07T02:52:03;3.87;;;2.00;;
46318;SDS011;32042;50.916;2.926;2024-01-07T02:54:30;4.10;;;1.97;;
46318;SDS011;32042;50.916;2.926;2024-01-07T02:56:56;4.90;;;2.20;;
46318;SDS011;32042;50.916;2.926;2024-01-07T02:59:22;8.03;;;2.30;;
46318;SDS011;32042;50.916;2.926;2024-01-07T03:01:48;4.17;;;2.20;;
46318;SDS011;32042;50.916;2.926;2024-01-07T03:04:15;4.70;;;2.50;;
46318;SDS011;32042;50.916;2.926;2024-01-07T03:06:42;5.27;;;2.10;;
46318;SDS011;32042;50.916;2.926;2024-01-07T03:09:08;4.37;;;2.17;;
46318;SDS011;32042;50.916;2.926;2024-01-07T03:11:39;7.27;;;2.60;;
46318;SDS011;32042;50.916;2.926;2024-01-07T03:14:06;4.87;;;2.30;;
46318;SDS011;32042;50.916;2.926;2024-01-07T03:16:32;5.87;;;2.60;;
46318;SDS011;32042;50.916;2.926;2024-01-07T03:18:58;4.10;;;2.37;;
46318;SDS011;32042;50.916;2.926;2024-01-07T03:21:24;3.60;;;2.67;;
46318;SDS011;32042;50.916;2.926;2024-01-07T03:23:50;6.87;;;2.67;;
46318;SDS011;32042;50.916;2.926;2024-01-07T03:26:17;3.10;;;2.60;;
46318;SDS011;32042;50.916;2.926;2024-01-07T03:28:44;3.97;;;2.43;;
46318;SDS011;32042;50.916;2.926;2024-01-07T03:31:13;5.67;;;2.47;;
46318;SDS011;32042;50.916;2.926;2024-01-07T03:33:40;6.50;;;2.90;;
46318;SDS011;32042;50.916;2.926;2024-01-07T03:36:10;7.83;;;2.47;;
46318;SDS011;32042;50.916;2.926;2024-01-07T03:38:37;5.07;;;2.63;;
46318;SDS011;32042;50.916;2.926;2024-01-07T03:41:03;4.73;;;2.37;;
46318;SDS011;32042;50.916;2.926;2024-01-07T03:43:29;5.87;;;2.40;;
46318;SDS011;32042;50.916;2.926;2024-01-07T03:45:55;3.13;;;2.30;;
46318;SDS011;32042;50.916;2.926;2024-01-07T03:48:21;4.00;;;2.37;;
46318;SDS011;32042;50.916;2.926;2024-01-07T03:50:47;3.30;;;2.80;;
46318;SDS011;32042;50.916;2.926;2024-01-07T03:53:14;8.47;;;2.93;;
46318;SDS011;32042;50.916;2.926;2024-01-07T03:55:40;4.43;;;2.83;;
46318;SDS011;32042;50.916;2.926;2024-01-07T03:58:07;5.17;;;3.00;;
46318;SDS011;32042;50.916;2.926;2024-01-07T04:00:33;4.27;;;2.47;;
46318;SDS011;32042;50.916;2.926;2024-01-07T04:03:00;5.60;;;3.40;;
46318;SDS011;32042;50.916;2.926;2024-01-07T04:05:27;6.93;;;3.40;;
46318;SDS011;32042;50.916;2.926;2024-01-07T04:07:54;5.93;;;3.20;;
46318;SDS011;32042;50.916;2.926;2024-01-07T04:10:20;5.33;;;2.93;;
46318;SDS011;32042;50.916;2.926;2024-01-07T04:12:46;4.67;;;3.60;;
46318;SDS011;32042;50.916;2.926;2024-01-07T04:15:13;6.47;;;2.73;;
46318;SDS011;32042;50.916;2.926;2024-01-07T04:17:39;7.13;;;3.60;;
46318;SDS011;32042;50.916;2.926;2024-01-07T04:20:05;3.80;;;2.90;;
46318;SDS011;32042;50.916;2.926;2024-01-07T04:22:31;4.83;;;3.00;;
46318;SDS011;32042;50.916;2.926;2024-01-07T04:24:58;7.77;;;3.07;;
46318;SDS011;32042;50.916;2.926;2024-01-07T04:27:24;7.97;;;3.27;;
46318;SDS011;32042;50.916;2.926;2024-01-07T04:29:50;4.70;;;3.10;;
46318;SDS011;32042;50.916;2.926;2024-01-07T04:32:16;5.23;;;3.13;;
46318;SDS011;32042;50.916;2.926;2024-01-07T04:34:42;6.47;;;2.87;;
46318;SDS011;32042;50.916;2.926;2024-01-07T04:37:08;4.37;;;2.57;;
46318;SDS011;32042;50.916;2.926;2024-01-07T04:39:34;5.37;;;3.40;;
46318;SDS011;32042;50.916;2.926;2024-01-07T04:42:00;5.27;;;3.20;;
46318;SDS011;32042;50.916;2.926;2024-01-07T04:44:26;6.57;;;2.90;;
46318;SDS011;32042;50.916;2.926;2024-01-07T04:46:52;4.67;;;2.50;;
46318;SDS011;32042;50.916;2.926;2024-01-07T04:49:18;3.70;;;2.87;;
46318;SDS011;32042;50.916;2.926;2024-01-07T04:51:44;3.97;;;2.80;;
46318;SDS011;32042;50.916;2.926;2024-01-07T04:54:11;7.33;;;3.13;;
46318;SDS011;32042;50.916;2.926;2024-01-07T04:56:37;6.20;;;3.40;;
46318;SDS011;32042;50.916;2.926;2024-01-07T04:59:03;4.93;;;2.80;;
46318;SDS011;32042;50.916;2.926;2024-01-07T05:01:29;3.27;;;2.93;;
46318;SDS011;32042;50.916;2.926;2024-01-07T05:03:55;4.33;;;3.17;;
46318;SDS011;32042;50.916;2.926;2024-01-07T05:06:22;7.47;;;3.17;;
46318;SDS011;32042;50.916;2.926;2024-01-07T05:08:49;4.57;;;3.57;;
46318;SDS011;32042;50.916;2.926;2024-01-07T05:11:15;6.07;;;4.00;;
46318;SDS011;32042;50.916;2.926;2024-01-07T05:13:42;9.83;;;4.80;;
46318;SDS011;32042;50.916;2.926;2024-01-07T05:16:08;4.97;;;4.20;;
46318;SDS011;32042;50.916;2.926;2024-01-07T05:18:34;8.50;;;5.43;;
46318;SDS011;32042;50.916;2.926;2024-01-07T05:21:00;8.83;;;5.23;;
46318;SDS011;32042;50.916;2.926;2024-01-07T05:23:26;8.63;;;5.67;;
46318;SDS011;32042;50.916;2.926;2024-01-07T05:25:52;6.07;;;5.47;;
46318;SDS011;32042;50.916;2.926;2024-01-07T05:28:18;7.13;;;5.13;;
46318;SDS011;32042;50.916;2.926;2024-01-07T05:30:45;7.67;;;6.47;;
46318;SDS011;32042;50.916;2.926;2024-01-07T05:33:12;7.87;;;5.83;;
46318;SDS011;32042;50.916;2.926;2024-01-07T05:35:38;7.80;;;5.50;;
46318;SDS011;32042;50.916;2.926;2024-01-07T05:38:04;7.47;;;6.10;;
46318;SDS011;32042;50.916;2.926;2024-01-07T05:40:30;5.97;;;5.37;;
46318;SDS011;32042;50.916;2.926;2024-01-07T05:42:56;10.00;;;7.03;;
46318;SDS011;32042;50.916;2.926;2024-01-07T05:45:22;7.67;;;6.90;;
46318;SDS011;32042;50.916;2.926;2024-01-07T05:47:48;8.83;;;7.70;;
46318;SDS011;32042;50.916;2.926;2024-01-07T05:50:14;7.60;;;6.13;;
46318;SDS011;32042;50.916;2.926;2024-01-07T05:52:43;10.97;;;7.83;;
46318;SDS011;32042;50.916;2.926;2024-01-07T05:55:10;8.93;;;6.93;;
46318;SDS011;32042;50.916;2.926;2024-01-07T05:57:36;7.77;;;6.80;;
46318;SDS011;32042;50.916;2.926;2024-01-07T06:00:02;8.00;;;7.20;;
46318;SDS011;32042;50.916;2.926;2024-01-07T06:02:29;9.07;;;8.10;;
46318;SDS011;32042;50.916;2.926;2024-01-07T06:04:57;7.73;;;6.90;;
46318;SDS011;32042;50.916;2.926;2024-01-07T06:07:27;8.63;;;7.40;;
46318;SDS011;32042;50.916;2.926;2024-01-07T06:09:53;9.77;;;8.03;;
46318;SDS011;32042;50.916;2.926;2024-01-07T06:12:19;7.93;;;7.13;;
46318;SDS011;32042;50.916;2.926;2024-01-07T06:14:45;8.70;;;7.53;;
46318;SDS011;32042;50.916;2.926;2024-01-07T06:17:12;9.07;;;8.23;;
46318;SDS011;32042;50.916;2.926;2024-01-07T06:19:38;10.53;;;8.80;;
46318;SDS011;32042;50.916;2.926;2024-01-07T06:22:04;9.33;;;8.43;;
46318;SDS011;32042;50.916;2.926;2024-01-07T06:24:30;9.27;;;8.13;;
46318;SDS011;32042;50.916;2.926;2024-01-07T06:26:56;10.67;;;8.50;;
46318;SDS011;32042;50.916;2.926;2024-01-07T06:29:22;10.57;;;8.53;;
46318;SDS011;32042;50.916;2.926;2024-01-07T06:31:48;10.13;;;9.13;;
46318;SDS011;32042;50.916;2.926;2024-01-07T06:34:14;10.27;;;9.17;;
46318;SDS011;32042;50.916;2.926;2024-01-07T06:36:41;10.53;;;9.43;;
46318;SDS011;32042;50.916;2.926;2024-01-07T06:39:07;9.40;;;8.53;;
46318;SDS011;32042;50.916;2.926;2024-01-07T06:41:34;9.73;;;8.00;;
46318;SDS011;32042;50.916;2.926;2024-01-07T06:44:00;10.93;;;9.07;;
46318;SDS011;32042;50.916;2.926;2024-01-07T06:46:26;9.70;;;8.70;;
46318;SDS011;32042;50.916;2.926;2024-01-07T06:48:52;10.60;;;9.47;;
46318;SDS011;32042;50.916;2.926;2024-01-07T06:51:18;9.50;;;8.40;;
46318;SDS011;32042;50.916;2.926;2024-01-07T06:53:44;10.17;;;9.13;;
46318;SDS011;32042;50.916;2.926;2024-01-07T06:56:10;10.50;;;9.40;;
46318;SDS011;32042;50.916;2.926;2024-01-07T06:58:36;11.40;;;10.03;;
46318;SDS011;32042;50.916;2.926;2024-01-07T07:01:03;13.10;;;10.17;;
46318;SDS011;32042;50.916;2.926;2024-01-07T07:03:29;8.67;;;7.70;;
46318;SDS011;32042;50.916;2.926;2024-01-07T07:05:55;10.50;;;9.40;;
46318;SDS011;32042;50.916;2.926;2024-01-07T07:08:22;11.00;;;9.20;;
46318;SDS011;32042;50.916;2.926;2024-01-07T07:10:48;10.80;;;9.43;;
46318;SDS011;32042;50.916;2.926;2024-01-07T07:13:14;11.20;;;10.10;;
46318;SDS011;32042;50.916;2.926;2024-01-07T07:15:40;10.47;;;9.37;;
46318;SDS011;32042;50.916;2.926;2024-01-07T07:18:06;12.17;;;10.53;;
46318;SDS011;32042;50.916;2.926;2024-01-07T07:20:32;9.03;;;8.13;;
46318;SDS011;32042;50.916;2.926;2024-01-07T07:22:58;11.97;;;10.70;;
46318;SDS011;32042;50.916;2.926;2024-01-07T07:25:25;12.37;;;10.97;;
46318;SDS011;32042;50.916;2.926;2024-01-07T07:27:51;11.77;;;10.43;;
46318;SDS011;32042;50.916;2.926;2024-01-07T07:30:17;13.73;;;11.63;;
46318;SDS011;32042;50.916;2.926;2024-01-07T07:32:44;12.40;;;11.07;;
46318;SDS011;32042;50.916;2.926;2024-01-07T07:35:10;12.87;;;11.07;;
46318;SDS011;32042;50.916;2.926;2024-01-07T07:37:36;12.10;;;11.00;;
46318;SDS011;32042;50.916;2.926;2024-01-07T07:40:03;14.70;;;11.10;;
46318;SDS011;32042;50.916;2.926;2024-01-07T07:42:29;12.60;;;11.30;;
46318;SDS011;32042;50.916;2.926;2024-01-07T07:44:55;14.47;;;12.60;;
46318;SDS011;32042;50.916;2.926;2024-01-07T07:47:21;15.30;;;12.63;;
46318;SDS011;32042;50.916;2.926;2024-01-07T07:49:47;14.53;;;11.90;;
46318;SDS011;32042;50.916;2.926;2024-01-07T07:52:15;15.23;;;11.10;;
46318;SDS011;32042;50.916;2.926;2024-01-07T07:54:46;15.90;;;13.20;;
46318;SDS011;32042;50.916;2.926;2024-01-07T07:57:13;15.77;;;11.87;;
46318;SDS011;32042;50.916;2.926;2024-01-07T07:59:39;13.70;;;11.47;;
46318;SDS011;32042;50.916;2.926;2024-01-07T08:02:05;12.93;;;11.37;;
46318;SDS011;32042;50.916;2.926;2024-01-07T08:04:31;16.50;;;13.20;;
46318;SDS011;32042;50.916;2.926;2024-01-07T08:06:58;14.40;;;13.00;;
46318;SDS011;32042;50.916;2.926;2024-01-07T08:09:25;14.50;;;11.93;;
46318;SDS011;32042;50.916;2.926;2024-01-07T08:11:51;14.60;;;12.67;;
46318;SDS011;32042;50.916;2.926;2024-01-07T08:14:18;15.00;;;12.30;;
46318;SDS011;32042;50.916;2.926;2024-01-07T08:16:44;15.53;;;13.47;;
46318;SDS011;32042;50.916;2.926;2024-01-07T08:19:10;16.77;;;13.97;;
46318;SDS011;32042;50.916;2.926;2024-01-07T08:21:36;17.13;;;13.63;;
46318;SDS011;32042;50.916;2.926;2024-01-07T08:24:02;16.23;;;12.93;;
46318;SDS011;32042;50.916;2.926;2024-01-07T08:26:29;17.23;;;13.67;;
46318;SDS011;32042;50.916;2.926;2024-01-07T08:28:56;16.63;;;14.37;;
46318;SDS011;32042;50.916;2.926;2024-01-07T08:31:23;16.80;;;13.33;;
46318;SDS011;32042;50.916;2.926;2024-01-07T08:33:49;16.23;;;14.13;;
46318;SDS011;32042;50.916;2.926;2024-01-07T08:36:15;18.30;;;14.07;;
46318;SDS011;32042;50.916;2.926;2024-01-07T08:38:41;14.07;;;12.67;;
46318;SDS011;32042;50.916;2.926;2024-01-07T08:41:07;13.93;;;11.93;;
46318;SDS011;32042;50.916;2.926;2024-01-07T08:43:34;12.60;;;11.03;;
46318;SDS011;32042;50.916;2.926;2024-01-07T08:46:00;15.63;;;12.83;;
46318;SDS011;32042;50.916;2.926;2024-01-07T08:48:27;14.70;;;13.23;;
46318;SDS011;32042;50.916;2.926;2024-01-07T08:50:53;13.37;;;11.97;;
46318;SDS011;32042;50.916;2.926;2024-01-07T08:53:19;14.00;;;12.47;;
46318;SDS011;32042;50.916;2.926;2024-01-07T08:55:47;14.33;;;12.17;;
46318;SDS011;32042;50.916;2.926;2024-01-07T08:58:13;12.40;;;11.10;;
46318;SDS011;32042;50.916;2.926;2024-01-07T09:00:39;13.77;;;11.10;;
46318;SDS011;32042;50.916;2.926;2024-01-07T09:03:07;14.70;;;12.93;;
46318;SDS011;32042;50.916;2.926;2024-01-07T09:05:34;12.47;;;11.07;;
46318;SDS011;32042;50.916;2.926;2024-01-07T09:08:01;14.10;;;11.93;;
46318;SDS011;32042;50.916;2.926;2024-01-07T09:10:27;12.87;;;11.50;;
46318;SDS011;32042;50.916;2.926;2024-01-07T09:12:53;16.17;;;11.80;;
46318;SDS011;32042;50.916;2.926;2024-01-07T09:15:20;14.60;;;11.70;;
46318;SDS011;32042;50.916;2.926;2024-01-07T09:17:46;14.57;;;13.00;;
46318;SDS011;32042;50.916;2.926;2024-01-07T09:20:13;14.77;;;10.83;;
46318;SDS011;32042;50.916;2.926;2024-01-07T09:22:39;14.53;;;12.87;;
46318;SDS011;32042;50.916;2.926;2024-01-07T09:25:05;16.90;;;12.17;;
46318;SDS011;32042;50.916;2.926;2024-01-07T09:27:32;14.63;;;12.17;;
46318;SDS011;32042;50.916;2.926;2024-01-07T09:29:59;15.00;;;13.40;;
46318;SDS011;32042;50.916;2.926;2024-01-07T09:32:26;15.10;;;11.93;;
46318;SDS011;32042;50.916;2.926;2024-01-07T09:34:52;15.77;;;13.00;;
46318;SDS011;32042;50.916;2.926;2024-01-07T09:37:18;14.80;;;12.87;;
46318;SDS011;32042;50.916;2.926;2024-01-07T09:39:44;14.60;;;13.00;;
46318;SDS011;32042;50.916;2.926;2024-01-07T09:42:14;14.40;;;12.83;;
46318;SDS011;32042;50.916;2.926;2024-01-07T09:44:41;14.40;;;12.47;;
46318;SDS011;32042;50.916;2.926;2024-01-07T09:47:10;14.47;;;11.50;;
46318;SDS011;32042;50.916;2.926;2024-01-07T09:49:36;14.33;;;11.73;;
46318;SDS011;32042;50.916;2.926;2024-01-07T09:52:03;15.37;;;13.37;;
46318;SDS011;32042;50.916;2.926;2024-01-07T09:54:30;13.20;;;11.63;;
46318;SDS011;32042;50.916;2.926;2024-01-07T09:57:02;15.83;;;12.30;;
46318;SDS011;32042;50.916;2.926;2024-01-07T09:59:29;17.70;;;13.23;;
46318;SDS011;32042;50.916;2.926;2024-01-07T10:01:58;17.90;;;14.23;;
46318;SDS011;32042;50.916;2.926;2024-01-07T10:04:24;14.83;;;12.40;;
46318;SDS011;32042;50.916;2.926;2024-01-07T10:06:51;16.00;;;13.50;;
46318;SDS011;32042;50.916;2.926;2024-01-07T10:09:19;14.87;;;12.50;;
46318;SDS011;32042;50.916;2.926;2024-01-07T10:11:45;12.30;;;11.03;;
46318;SDS011;32042;50.916;2.926;2024-01-07T10:14:11;14.10;;;12.60;;
46318;SDS011;32042;50.916;2.926;2024-01-07T10:16:38;13.60;;;11.00;;
46318;SDS011;32042;50.916;2.926;2024-01-07T10:19:04;13.97;;;11.87;;
46318;SDS011;32042;50.916;2.926;2024-01-07T10:21:32;15.97;;;12.77;;
46318;SDS011;32042;50.916;2.926;2024-01-07T10:24:08;12.17;;;10.87;;
46318;SDS011;32042;50.916;2.926;2024-01-07T10:26:39;14.70;;;12.70;;
46318;SDS011;32042;50.916;2.926;2024-01-07T10:29:06;14.80;;;11.73;;
46318;SDS011;32042;50.916;2.926;2024-01-07T10:31:33;14.43;;;12.87;;
46318;SDS011;32042;50.916;2.926;2024-01-07T10:33:59;13.00;;;11.57;;
46318;SDS011;32042;50.916;2.926;2024-01-07T10:36:26;16.30;;;12.80;;
46318;SDS011;32042;50.916;2.926;2024-01-07T10:38:52;15.47;;;12.40;;
46318;SDS011;32042;50.916;2.926;2024-01-07T10:41:20;14.53;;;11.67;;
46318;SDS011;32042;50.916;2.926;2024-01-07T10:43:46;13.90;;;10.07;;
46318;SDS011;32042;50.916;2.926;2024-01-07T10:46:13;16.90;;;14.07;;
46318;SDS011;32042;50.916;2.926;2024-01-07T10:48:44;14.80;;;11.90;;
46318;SDS011;32042;50.916;2.926;2024-01-07T10:51:12;12.80;;;10.63;;
46318;SDS011;32042;50.916;2.926;2024-01-07T10:53:40;22.70;;;15.00;;
46318;SDS011;32042;50.916;2.926;2024-01-07T10:56:08;18.87;;;14.73;;
46318;SDS011;32042;50.916;2.926;2024-01-07T10:58:37;18.13;;;13.10;;
46318;SDS011;32042;50.916;2.926;2024-01-07T11:01:03;20.00;;;14.50;;
46318;SDS011;32042;50.916;2.926;2024-01-07T11:03:38;18.87;;;14.70;;
46318;SDS011;32042;50.916;2.926;2024-01-07T11:06:09;16.93;;;13.37;;
46318;SDS011;32042;50.916;2.926;2024-01-07T11:08:44;20.13;;;15.30;;
46318;SDS011;32042;50.916;2.926;2024-01-07T11:11:22;15.90;;;12.40;;
46318;SDS011;32042;50.916;2.926;2024-01-07T11:13:49;19.33;;;15.40;;
46318;SDS011;32042;50.916;2.926;2024-01-07T11:16:15;24.03;;;16.33;;
46318;SDS011;32042;50.916;2.926;2024-01-07T11:19:01;22.07;;;16.00;;
46318;SDS011;32042;50.916;2.926;2024-01-07T11:21:27;20.33;;;15.87;;
46318;SDS011;32042;50.916;2.926;2024-01-07T11:23:53;21.97;;;16.13;;
46318;SDS011;32042;50.916;2.926;2024-01-07T11:26:19;18.53;;;13.53;;
46318;SDS011;32042;50.916;2.926;2024-01-07T11:28:52;18.27;;;14.33;;
46318;SDS011;32042;50.916;2.926;2024-01-07T11:31:20;16.97;;;11.97;;
46318;SDS011;32042;50.916;2.926;2024-01-07T11:33:49;19.20;;;15.50;;
46318;SDS011;32042;50.916;2.926;2024-01-07T11:36:16;16.40;;;13.90;;
46318;SDS011;32042;50.916;2.926;2024-01-07T11:38:49;17.50;;;13.70;;
46318;SDS011;32042;50.916;2.926;2024-01-07T11:41:15;17.50;;;12.87;;
46318;SDS011;32042;50.916;2.926;2024-01-07T11:43:52;19.23;;;13.70;;
46318;SDS011;32042;50.916;2.926;2024-01-07T11:46:19;18.97;;;14.17;;
46318;SDS011;32042;50.916;2.926;2024-01-07T11:48:45;17.07;;;13.00;;
46318;SDS011;32042;50.916;2.926;2024-01-07T11:51:11;20.20;;;14.70;;
46318;SDS011;32042;50.916;2.926;2024-01-07T11:53:37;18.87;;;13.70;;
46318;SDS011;32042;50.916;2.926;2024-01-07T11:56:03;20.97;;;13.77;;
46318;SDS011;32042;50.916;2.926;2024-01-07T11:58:30;18.43;;;14.13;;
46318;SDS011;32042;50.916;2.926;2024-01-07T12:00:56;19.43;;;14.90;;
46318;SDS011;32042;50.916;2.926;2024-01-07T12:03:25;21.87;;;15.93;;
46318;SDS011;32042;50.916;2.926;2024-01-07T12:05:51;24.90;;;15.60;;
46318;SDS011;32042;50.916;2.926;2024-01-07T12:08:17;22.27;;;15.63;;
46318;SDS011;32042;50.916;2.926;2024-01-07T12:10:43;19.90;;;15.07;;
46318;SDS011;32042;50.916;2.926;2024-01-07T12:13:10;20.73;;;16.10;;
46318;SDS011;32042;50.916;2.926;2024-01-07T12:15:37;21.40;;;16.50;;
46318;SDS011;32042;50.916;2.926;2024-01-07T12:18:04;18.47;;;13.27;;
46318;SDS011;32042;50.916;2.926;2024-01-07T12:20:30;24.73;;;16.47;;
46318;SDS011;32042;50.916;2.926;2024-01-07T12:22:56;22.10;;;16.93;;
46318;SDS011;32042;50.916;2.926;2024-01-07T12:25:23;21.50;;;16.07;;
46318;SDS011;32042;50.916;2.926;2024-01-07T12:27:49;24.80;;;16.83;;
46318;SDS011;32042;50.916;2.926;2024-01-07T12:30:18;21.53;;;16.07;;
46318;SDS011;32042;50.916;2.926;2024-01-07T12:32:44;18.20;;;14.13;;
46318;SDS011;32042;50.916;2.926;2024-01-07T12:35:10;21.30;;;12.53;;
46318;SDS011;32042;50.916;2.926;2024-01-07T12:37:37;18.37;;;14.23;;
46318;SDS011;32042;50.916;2.926;2024-01-07T12:40:03;13.57;;;11.20;;
46318;SDS011;32042;50.916;2.926;2024-01-07T12:42:29;22.67;;;13.23;;
46318;SDS011;32042;50.916;2.926;2024-01-07T12:44:56;14.07;;;11.10;;
46318;SDS011;32042;50.916;2.926;2024-01-07T12:47:22;11.27;;;9.70;;
46318;SDS011;32042;50.916;2.926;2024-01-07T12:49:48;17.90;;;13.03;;
46318;SDS011;32042;50.916;2.926;2024-01-07T12:52:15;16.00;;;12.57;;
46318;SDS011;32042;50.916;2.926;2024-01-07T12:54:42;15.13;;;10.67;;
46318;SDS011;32042;50.916;2.926;2024-01-07T12:57:08;20.67;;;13.03;;
46318;SDS011;32042;50.916;2.926;2024-01-07T12:59:34;20.87;;;14.80;;
46318;SDS011;32042;50.916;2.926;2024-01-07T13:02:00;17.90;;;13.30;;
46318;SDS011;32042;50.916;2.926;2024-01-07T13:04:26;18.17;;;13.83;;
46318;SDS011;32042;50.916;2.926;2024-01-07T13:06:52;17.90;;;13.67;;
46318;SDS011;32042;50.916;2.926;2024-01-07T13:09:19;17.17;;;13.10;;
46318;SDS011;32042;50.916;2.926;2024-01-07T13:11:45;16.33;;;12.53;;
46318;SDS011;32042;50.916;2.926;2024-01-07T13:14:12;14.67;;;11.80;;
46318;SDS011;32042;50.916;2.926;2024-01-07T13:16:38;18.37;;;14.33;;
46318;SDS011;32042;50.916;2.926;2024-01-07T13:19:04;16.63;;;12.53;;
46318;SDS011;32042;50.916;2.926;2024-01-07T13:21:30;16.00;;;12.80;;
46318;SDS011;32042;50.916;2.926;2024-01-07T13:23:56;12.43;;;10.50;;
46318;SDS011;32042;50.916;2.926;2024-01-07T13:26:25;14.23;;;11.40;;
46318;SDS011;32042;50.916;2.926;2024-01-07T13:28:51;14.03;;;10.57;;
46318;SDS011;32042;50.916;2.926;2024-01-07T13:31:17;12.30;;;11.00;;
46318;SDS011;32042;50.916;2.926;2024-01-07T13:33:43;12.67;;;10.37;;
46318;SDS011;32042;50.916;2.926;2024-01-07T13:36:09;12.70;;;9.83;;
46318;SDS011;32042;50.916;2.926;2024-01-07T13:38:37;10.00;;;8.27;;
46318;SDS011;32042;50.916;2.926;2024-01-07T13:41:03;12.63;;;10.00;;
46318;SDS011;32042;50.916;2.926;2024-01-07T13:43:30;15.40;;;11.83;;
46318;SDS011;32042;50.916;2.926;2024-01-07T13:45:56;15.13;;;9.77;;
46318;SDS011;32042;50.916;2.926;2024-01-07T13:48:22;14.90;;;11.03;;
46318;SDS011;32042;50.916;2.926;2024-01-07T13:50:48;16.00;;;12.10;;
46318;SDS011;32042;50.916;2.926;2024-01-07T13:53:14;16.23;;;12.40;;
46318;SDS011;32042;50.916;2.926;2024-01-07T13:55:40;14.93;;;11.17;;
46318;SDS011;32042;50.916;2.926;2024-01-07T13:58:06;13.13;;;10.40;;
46318;SDS011;32042;50.916;2.926;2024-01-07T14:00:32;17.93;;;13.27;;
46318;SDS011;32042;50.916;2.926;2024-01-07T14:02:59;13.07;;;11.27;;
46318;SDS011;32042;50.916;2.926;2024-01-07T14:05:25;13.00;;;11.57;;
46318;SDS011;32042;50.916;2.926;2024-01-07T14:07:53;13.13;;;10.93;;
46318;SDS011;32042;50.916;2.926;2024-01-07T14:10:19;15.03;;;11.80;;
46318;SDS011;32042;50.916;2.926;2024-01-07T14:12:45;14.90;;;11.97;;
46318;SDS011;32042;50.916;2.926;2024-01-07T14:15:12;13.27;;;11.23;;
46318;SDS011;32042;50.916;2.926;2024-01-07T14:17:38;17.83;;;12.10;;
46318;SDS011;32042;50.916;2.926;2024-01-07T14:20:05;17.70;;;12.97;;
46318;SDS011;32042;50.916;2.926;2024-01-07T14:22:33;16.23;;;13.10;;
46318;SDS011;32042;50.916;2.926;2024-01-07T14:24:59;16.70;;;12.40;;
46318;SDS011;32042;50.916;2.926;2024-01-07T14:27:25;16.00;;;12.23;;
46318;SDS011;32042;50.916;2.926;2024-01-07T14:29:52;16.33;;;10.07;;